Time;durP1;ratioP1;P1;durP2;ratioP2;P2;SDS_P1;SDS_P2;PMS_P1;PMS_P2;Temp;Humidity;BMP_temperature;BMP_pressure;BME280_temperature;BME280_humidity;BME280_pressure;Samples;Min_cycle;Max_cycle;Signal;HPM_P1;HPM_P2
2022/01/03 00:01:06;;;;;;;;;;;19.40;74.80;;;;;;5124171;28;19908;-44
2022/01/03 00:03:32;;;;;;;;;;;19.40;74.80;;;;;;5124233;28;19929;-43
2022/01/03 00:05:57;;;;;;;;;;;19.40;74.80;;;;;;5123953;28;19907;-42
2022/01/03 00:08:23;;;;;;;;;;;19.40;74.80;;;;;;5124074;28;19935;-43
2022/01/03 00:10:49;;;;;;;;;;;19.40;75.50;;;;;;5121715;28;19914;-42
2022/01/03 00:13:15;;;;;;;;;;;19.30;74.60;;;;;;5124151;28;19915;-43
2022/01/03 00:15:41;;;;;;;;;;;19.30;74.70;;;;;;5122322;28;19908;-43
2022/01/03 00:18:07;;;;;;;;;;;19.30;74.70;;;;;;5124143;28;19994;-48
2022/01/03 00:20:33;;;;;;;;;;;19.30;74.70;;;;;;5124002;28;19907;-42
2022/01/03 00:23:02;;;;;;;;;;;19.30;74.80;;;;;;5122526;28;19915;-42
2022/01/03 00:25:28;;;;;;;;;;;19.30;74.70;;;;;;5123752;28;20245;-43
2022/01/03 00:27:58;;;;;;;;;;;19.30;74.80;;;;;;5123901;28;20419;-42
2022/01/03 00:30:24;;;;;;;;;;;19.30;74.90;;;;;;5123399;28;20260;-43
2022/01/03 00:32:51;;;;;;;;;;;19.30;74.80;;;;;;5123873;28;19916;-42
2022/01/03 00:35:17;;;;;;;;;;;19.30;74.70;;;;;;5123500;28;19904;-42
2022/01/03 00:37:44;;;;;;;;;;;19.30;74.80;;;;;;5123492;28;19915;-43
2022/01/03 00:40:10;;;;;;;;;;;19.30;74.80;;;;;;5116797;28;19908;-42
2022/01/03 00:42:36;;;;;;;;;;;19.20;74.80;;;;;;5103368;28;19911;-43
2022/01/03 00:45:02;;;;;;;;;;;19.20;74.80;;;;;;5103036;28;19940;-43
2022/01/03 00:47:34;;;;;;;;;;;19.30;74.80;;;;;;5103509;28;20057;-43
2022/01/03 00:50:01;;;;;;;;;;;19.20;74.70;;;;;;5124474;28;20063;-44
2022/01/03 00:52:27;;;;;;;;;;;19.20;74.80;;;;;;5126157;28;19990;-42
2022/01/03 00:54:53;;;;;;;;;;;19.20;74.70;;;;;;5127952;28;19946;-44
2022/01/03 00:57:20;;;;;;;;;;;19.20;74.80;;;;;;5127559;28;19910;-42
2022/01/03 00:59:51;;;;;;;;;;;19.20;74.80;;;;;;5127702;28;19908;-42
2022/01/03 01:02:17;;;;;;;;;;;19.20;74.80;;;;;;5126351;28;19911;-42
2022/01/03 01:04:43;;;;;;;;;;;19.20;74.80;;;;;;5111329;28;19932;-43
2022/01/03 01:07:09;;;;;;;;;;;19.20;74.70;;;;;;5106839;28;20045;-44
2022/01/03 01:09:35;;;;;;;;;;;19.20;74.80;;;;;;5106994;28;19912;-43
2022/01/03 01:12:01;;;;;;;;;;;19.20;74.80;;;;;;5127443;28;19911;-43
2022/01/03 01:14:27;;;;;;;;;;;19.20;74.80;;;;;;5127560;28;19911;-42
2022/01/03 01:16:53;;;;;;;;;;;19.20;74.80;;;;;;5127127;28;19912;-45
2022/01/03 01:19:19;;;;;;;;;;;19.10;74.70;;;;;;5123623;28;19903;-42
2022/01/03 01:21:47;;;;;;;;;;;19.20;74.80;;;;;;5120043;28;19914;-42
2022/01/03 01:24:14;;;;;;;;;;;19.10;74.70;;;;;;5118773;28;19914;-43
2022/01/03 01:29:24;;;;;;;;;;;19.10;74.80;;;;;;5117484;28;19911;-42
2022/01/03 01:31:50;;;;;;;;;;;19.10;74.80;;;;;;5116768;28;19912;-43
2022/01/03 01:34:26;;;;;;;;;;;19.10;74.80;;;;;;5120234;28;19910;-43
2022/01/03 01:36:53;;;;;;;;;;;19.10;74.90;;;;;;5116477;28;19971;-41
2022/01/03 01:39:19;;;;;;;;;;;19.10;74.80;;;;;;5120606;28;19908;-43
2022/01/03 01:41:45;;;;;;;;;;;19.10;74.80;;;;;;5118250;28;20718;-43
2022/01/03 01:44:11;;;;;;;;;;;19.10;74.80;;;;;;5117863;28;19907;-43
2022/01/03 01:46:47;;;;;;;;;;;19.10;74.80;;;;;;5119789;28;20415;-46
2022/01/03 01:49:17;;;;;;;;;;;19.10;74.80;;;;;;5121506;28;19908;-43
2022/01/03 01:51:47;;;;;;;;;;;19.10;74.80;;;;;;5126692;28;19912;-43
2022/01/03 01:54:14;;;;;;;;;;;19.00;74.70;;;;;;5126685;28;19919;-42
2022/01/03 01:56:46;;;;;;;;;;;19.00;74.80;;;;;;5126273;28;19943;-44
2022/01/03 01:59:12;;;;;;;;;;;19.00;74.80;;;;;;5126222;28;19938;-42
2022/01/03 02:01:43;;;;;;;;;;;19.00;74.80;;;;;;5126041;28;19918;-42
2022/01/03 02:04:27;;;;;;;;;;;19.00;74.70;;;;;;5126525;28;19912;-42
2022/01/03 02:06:54;;;;;;;;;;;19.00;74.80;;;;;;5126344;28;19908;-43
2022/01/03 02:09:21;;;;;;;;;;;19.00;74.80;;;;;;5126172;28;20435;-42
2022/01/03 02:11:49;;;;;;;;;;;19.00;74.80;;;;;;5105101;28;19923;-42
2022/01/03 02:14:15;;;;;;;;;;;19.00;74.90;;;;;;5105976;28;19908;-42
2022/01/03 02:16:41;;;;;;;;;;;19.00;74.90;;;;;;5105723;28;19958;-42
2022/01/03 02:19:07;;;;;;;;;;;19.00;74.80;;;;;;5115372;28;19908;-42
2022/01/03 02:21:33;;;;;;;;;;;19.00;74.90;;;;;;5126120;28;19904;-44
2022/01/03 02:23:59;;;;;;;;;;;19.00;74.80;;;;;;5125990;28;19907;-42
2022/01/03 02:26:26;;;;;;;;;;;18.90;74.80;;;;;;5125615;28;19907;-43
2022/01/03 02:28:51;;;;;;;;;;;18.90;74.90;;;;;;5124428;28;20404;-43
2022/01/03 02:31:17;;;;;;;;;;;19.00;74.90;;;;;;5126219;28;19907;-42
2022/01/03 02:33:44;;;;;;;;;;;18.90;74.90;;;;;;5125949;28;19911;-42
2022/01/03 02:36:10;;;;;;;;;;;18.90;74.90;;;;;;5125904;27;19904;-42
2022/01/03 02:38:35;;;;;;;;;;;18.90;74.90;;;;;;5125584;28;19908;-42
2022/01/03 02:41:01;;;;;;;;;;;18.90;74.90;;;;;;5111697;28;19984;-42
2022/01/03 02:43:27;;;;;;;;;;;18.90;74.90;;;;;;5105513;28;19951;-42
2022/01/03 02:45:53;;;;;;;;;;;18.90;74.90;;;;;;5105369;28;20322;-42
2022/01/03 02:48:20;;;;;;;;;;;18.90;74.90;;;;;;5106903;28;19951;-42
2022/01/03 02:50:46;;;;;;;;;;;18.90;75.00;;;;;;5116549;28;19942;-42
2022/01/03 02:53:12;;;;;;;;;;;18.90;75.00;;;;;;5115756;28;19924;-42
2022/01/03 02:55:38;;;;;;;;;;;18.90;74.90;;;;;;5118860;28;19912;-42
2022/01/03 02:58:07;;;;;;;;;;;18.80;75.00;;;;;;5118183;28;19911;-42
2022/01/03 03:00:37;;;;;;;;;;;18.80;75.00;;;;;;5116037;28;19979;-43
2022/01/03 03:03:03;;;;;;;;;;;18.90;75.00;;;;;;5117167;28;19907;-42
2022/01/03 03:05:29;;;;;;;;;;;18.90;74.90;;;;;;5119149;28;19911;-42
2022/01/03 03:07:55;;;;;;;;;;;18.80;74.90;;;;;;5116726;28;19908;-42
2022/01/03 03:10:22;;;;;;;;;;;18.80;74.80;;;;;;5117830;28;19929;-42
2022/01/03 03:12:48;;;;;;;;;;;18.80;74.90;;;;;;5116699;28;19916;-42
2022/01/03 03:15:14;;;;;;;;;;;18.80;74.90;;;;;;5116690;28;19939;-42
2022/01/03 03:17:40;;;;;;;;;;;18.80;75.00;;;;;;5115777;28;19915;-44
2022/01/03 03:20:10;;;;;;;;;;;18.80;74.90;;;;;;5124313;28;19983;-42
2022/01/03 03:22:36;;;;;;;;;;;18.80;75.00;;;;;;5124721;28;19971;-44
2022/01/03 03:25:06;;;;;;;;;;;18.90;75.00;;;;;;5125210;28;19950;-42
2022/01/03 03:27:32;;;;;;;;;;;18.80;75.00;;;;;;5124795;28;19907;-42
2022/01/03 03:29:58;;;;;;;;;;;18.80;75.00;;;;;;5125017;28;19907;-42
2022/01/03 03:32:25;;;;;;;;;;;18.80;75.00;;;;;;5124880;28;19916;-42
2022/01/03 03:34:51;;;;;;;;;;;18.80;75.00;;;;;;5124932;28;20336;-42
2022/01/03 03:37:17;;;;;;;;;;;18.80;75.00;;;;;;5124695;28;19908;-42
2022/01/03 03:39:43;;;;;;;;;;;18.80;75.00;;;;;;5123103;28;20453;-40
2022/01/03 03:42:09;;;;;;;;;;;18.70;75.00;;;;;;5124279;28;19904;-42
2022/01/03 03:44:35;;;;;;;;;;;18.70;75.00;;;;;;5124951;28;19929;-44
2022/01/03 03:47:01;;;;;;;;;;;18.70;75.00;;;;;;5124749;28;19904;-43
2022/01/03 03:49:27;;;;;;;;;;;18.70;75.10;;;;;;5119375;28;19998;-42
2022/01/03 03:51:53;;;;;;;;;;;18.70;75.10;;;;;;5113069;28;19922;-42
2022/01/03 03:54:19;;;;;;;;;;;18.70;75.00;;;;;;5118067;28;20406;-42
2022/01/03 03:56:45;;;;;;;;;;;18.70;75.10;;;;;;5116383;28;20321;-42
2022/01/03 03:59:11;;;;;;;;;;;18.70;75.10;;;;;;5117781;28;20024;-43
2022/01/03 04:01:36;;;;;;;;;;;18.70;75.10;;;;;;5117395;28;19903;-42
2022/01/03 04:04:02;;;;;;;;;;;18.70;75.10;;;;;;5117420;28;19912;-42
2022/01/03 04:06:28;;;;;;;;;;;18.70;75.00;;;;;;5116908;28;20383;-42
2022/01/03 04:08:54;;;;;;;;;;;18.70;75.10;;;;;;5115163;28;19904;-42
2022/01/03 04:11:21;;;;;;;;;;;18.70;75.10;;;;;;5115718;28;19986;-42
2022/01/03 04:13:47;;;;;;;;;;;18.70;75.20;;;;;;5113102;28;19903;-42
2022/01/03 04:16:13;;;;;;;;;;;18.70;75.10;;;;;;5116989;28;19937;-44
2022/01/03 04:18:39;;;;;;;;;;;18.70;75.10;;;;;;5116579;28;19911;-42
2022/01/03 04:21:05;;;;;;;;;;;18.70;75.20;;;;;;5123584;28;19907;-42
2022/01/03 04:23:31;;;;;;;;;;;18.70;75.10;;;;;;5123495;28;20335;-42
2022/01/03 04:25:57;;;;;;;;;;;18.70;75.10;;;;;;5124157;28;19904;-42
2022/01/03 04:28:23;;;;;;;;;;;18.70;75.20;;;;;;5123795;28;19915;-42
2022/01/03 04:30:51;;;;;;;;;;;18.70;75.20;;;;;;5124163;28;19914;-43
2022/01/03 04:33:17;;;;;;;;;;;18.70;75.10;;;;;;5124200;28;19920;-42
2022/01/03 04:35:43;;;;;;;;;;;18.70;75.20;;;;;;5123940;28;19908;-42
2022/01/03 04:38:10;;;;;;;;;;;18.60;75.10;;;;;;5123257;28;20010;-42
2022/01/03 04:40:36;;;;;;;;;;;18.60;75.10;;;;;;5111914;28;20372;-41
2022/01/03 04:43:02;;;;;;;;;;;18.60;75.10;;;;;;5103381;28;19972;-41
2022/01/03 04:45:28;;;;;;;;;;;18.60;75.10;;;;;;5103430;28;19954;-41
2022/01/03 04:47:53;;;;;;;;;;;18.60;75.20;;;;;;5103304;28;19903;-40
2022/01/03 04:50:19;;;;;;;;;;;18.60;75.10;;;;;;5123166;28;19907;-40
2022/01/03 04:52:45;;;;;;;;;;;18.60;75.20;;;;;;5123392;28;19919;-42
2022/01/03 04:55:11;;;;;;;;;;;18.60;75.20;;;;;;5123852;28;19908;-41
2022/01/03 04:57:37;;;;;;;;;;;18.60;75.30;;;;;;5123868;28;19904;-42
2022/01/03 05:00:04;;;;;;;;;;;18.60;75.30;;;;;;5123526;28;19904;-42
2022/01/03 05:02:30;;;;;;;;;;;18.60;75.30;;;;;;5123746;28;19907;-42
2022/01/03 05:04:56;;;;;;;;;;;18.60;75.30;;;;;;5123301;28;20477;-42
2022/01/03 05:07:21;;;;;;;;;;;18.60;75.30;;;;;;5123561;28;19903;-42
2022/01/03 05:09:47;;;;;;;;;;;18.60;75.20;;;;;;5119759;28;19923;-42
2022/01/03 05:12:13;;;;;;;;;;;18.60;75.30;;;;;;5103224;28;19916;-42
2022/01/03 05:14:40;;;;;;;;;;;18.60;75.30;;;;;;5102996;28;19904;-42
2022/01/03 05:17:05;;;;;;;;;;;18.50;75.30;;;;;;5103267;28;19915;-44
2022/01/03 05:19:31;;;;;;;;;;;18.60;75.20;;;;;;5122589;28;19903;-42
2022/01/03 05:21:57;;;;;;;;;;;18.60;75.30;;;;;;5123505;28;19908;-42
2022/01/03 05:24:23;;;;;;;;;;;18.60;75.30;;;;;;5123733;28;19912;-42
2022/01/03 05:26:49;;;;;;;;;;;18.50;75.30;;;;;;5123545;28;19914;-41
2022/01/03 05:29:15;;;;;;;;;;;18.50;75.20;;;;;;5123383;28;19915;-42
2022/01/03 05:31:41;;;;;;;;;;;18.50;75.30;;;;;;5123426;28;19915;-42
2022/01/03 05:34:07;;;;;;;;;;;18.50;75.20;;;;;;5123521;28;20641;-42
2022/01/03 05:36:33;;;;;;;;;;;18.50;75.20;;;;;;5126945;28;19903;-44
2022/01/03 05:38:59;;;;;;;;;;;18.50;75.30;;;;;;5160002;27;19915;-42
2022/01/03 05:41:25;;;;;;;;;;;18.50;75.20;;;;;;5109957;28;19930;-42
2022/01/03 05:43:52;;;;;;;;;;;18.50;75.30;;;;;;5106811;28;20301;-41
2022/01/03 05:46:18;;;;;;;;;;;18.50;75.20;;;;;;5122892;28;19908;-42
2022/01/03 05:48:44;;;;;;;;;;;18.50;75.20;;;;;;5124259;28;19907;-42
2022/01/03 05:51:09;;;;;;;;;;;18.50;75.10;;;;;;5119264;28;19907;-44
2022/01/03 05:53:35;;;;;;;;;;;18.50;75.10;;;;;;5116769;28;20481;-44
2022/01/03 05:56:01;;;;;;;;;;;18.40;75.10;;;;;;5119195;28;19903;-42
2022/01/03 05:58:27;;;;;;;;;;;18.50;75.20;;;;;;5117796;28;19907;-44
2022/01/03 06:00:53;;;;;;;;;;;18.40;75.10;;;;;;5117804;28;19963;-43
2022/01/03 06:03:23;;;;;;;;;;;18.40;75.20;;;;;;5118722;28;19904;-42
2022/01/03 06:06:53;;;;;;;;;;;18.40;75.20;;;;;;5114829;28;19907;-42
2022/01/03 06:08:38;;;;;;;;;;;18.40;75.10;;;;;;5116471;28;19933;-42
2022/01/03 06:11:04;;;;;;;;;;;18.40;75.10;;;;;;5117632;28;19907;-42
2022/01/03 06:13:30;;;;;;;;;;;18.40;75.10;;;;;;5118483;28;19942;-42
2022/01/03 06:15:56;;;;;;;;;;;18.40;75.10;;;;;;5115561;28;19915;-41
2022/01/03 06:18:22;;;;;;;;;;;18.40;75.10;;;;;;5117460;28;19939;-41
2022/01/03 06:20:48;;;;;;;;;;;18.40;75.10;;;;;;5124929;28;19915;-41
2022/01/03 06:23:15;;;;;;;;;;;18.40;75.10;;;;;;5126353;28;19914;-41
2022/01/03 06:25:41;;;;;;;;;;;18.30;75.00;;;;;;5126443;28;19911;-42
2022/01/03 06:28:10;;;;;;;;;;;18.30;75.00;;;;;;5126591;28;20277;-42
2022/01/03 06:30:36;;;;;;;;;;;18.30;75.00;;;;;;5126041;28;19908;-42
2022/01/03 06:33:02;;;;;;;;;;;18.30;75.00;;;;;;5126191;27;19911;-42
2022/01/03 06:35:28;;;;;;;;;;;18.30;75.00;;;;;;5126236;28;20004;-43
2022/01/03 06:37:54;;;;;;;;;;;18.30;75.00;;;;;;5125974;27;19904;-42
2022/01/03 06:40:20;;;;;;;;;;;18.30;75.00;;;;;;5117939;28;19930;-42
2022/01/03 06:42:46;;;;;;;;;;;18.30;75.00;;;;;;5105753;28;19955;-42
2022/01/03 06:45:11;;;;;;;;;;;18.30;75.00;;;;;;5105652;28;19961;-44
2022/01/03 06:47:37;;;;;;;;;;;18.30;75.00;;;;;;5105030;28;19989;-42
2022/01/03 06:50:04;;;;;;;;;;;18.30;75.50;;;;;;5122916;28;19929;-42
2022/01/03 06:52:29;;;;;;;;;;;18.20;74.80;;;;;;5125555;28;19955;-42
2022/01/03 06:54:55;;;;;;;;;;;18.20;74.80;;;;;;5125918;28;19929;-43
2022/01/03 06:57:21;;;;;;;;;;;18.20;74.80;;;;;;5125808;28;19904;-42
2022/01/03 06:59:47;;;;;;;;;;;18.20;74.70;;;;;;5125623;28;19973;-42
2022/01/03 07:02:13;;;;;;;;;;;18.20;74.80;;;;;;5125257;28;19912;-42
2022/01/03 07:04:39;;;;;;;;;;;18.20;74.80;;;;;;5125247;28;19954;-43
2022/01/03 07:07:05;;;;;;;;;;;18.20;74.80;;;;;;5125621;28;19935;-42
2022/01/03 07:09:31;;;;;;;;;;;18.20;74.80;;;;;;5123733;28;19914;-42
2022/01/03 07:11:57;;;;;;;;;;;18.20;74.80;;;;;;5105009;28;19916;-42
2022/01/03 07:19:33;;;;;;;;;;;18.10;74.70;;;;;;5125272;28;19964;-42
2022/01/03 07:22:02;;;;;;;;;;;18.10;74.70;;;;;;5125062;28;19908;-42
2022/01/03 07:24:29;;;;;;;;;;;18.10;74.70;;;;;;5125140;28;19907;-42
2022/01/03 07:26:55;;;;;;;;;;;18.10;74.70;;;;;;5125372;28;19904;-41
2022/01/03 07:29:21;;;;;;;;;;;18.00;74.60;;;;;;5125319;27;19973;-41
2022/01/03 07:31:47;;;;;;;;;;;18.00;74.50;;;;;;5124979;28;19930;-41
2022/01/03 07:34:12;;;;;;;;;;;18.00;74.50;;;;;;5114458;28;19915;-43
2022/01/03 07:36:38;;;;;;;;;;;18.00;74.50;;;;;;5104566;28;19920;-42
2022/01/03 07:39:04;;;;;;;;;;;18.00;74.50;;;;;;5104232;28;19908;-42
2022/01/03 07:41:31;;;;;;;;;;;18.00;74.50;;;;;;5105267;28;19912;-42
2022/01/03 07:43:57;;;;;;;;;;;17.90;74.30;;;;;;5104872;28;19911;-42
2022/01/03 07:46:23;;;;;;;;;;;17.90;74.40;;;;;;5119758;28;19907;-41
2022/01/03 07:48:48;;;;;;;;;;;17.90;74.20;;;;;;5124724;28;20052;-42
2022/01/03 07:51:14;;;;;;;;;;;17.90;74.30;;;;;;5124203;28;19915;-41
2022/01/03 07:53:42;;;;;;;;;;;17.90;74.20;;;;;;5124262;28;20010;-42
2022/01/03 07:56:09;;;;;;;;;;;17.90;74.20;;;;;;5124921;28;19914;-41
2022/01/03 07:58:36;;;;;;;;;;;17.90;74.20;;;;;;5124016;28;19907;-42
2022/01/03 08:01:02;;;;;;;;;;;17.80;74.10;;;;;;5124285;28;19903;-42
2022/01/03 08:03:27;;;;;;;;;;;17.80;74.10;;;;;;5124148;28;19935;-42
2022/01/03 08:05:54;;;;;;;;;;;17.80;74.10;;;;;;5124524;28;19908;-43
2022/01/03 10:09:44;;;;;;;0.57;0.10;;;16.60;72.40;;;;;;5121163;27;20397;-55
2022/01/03 10:12:14;;;;;;;0.10;0.10;;;17.00;72.80;;;;;;5120372;28;20110;-53
2022/01/03 10:14:41;;;;;;;0.10;0.10;;;17.10;72.90;;;;;;5120100;28;20038;-54
2022/01/03 10:17:07;;;;;;;0.10;0.10;;;17.20;73.10;;;;;;5120341;28;20056;-54
2022/01/03 10:20:00;;;;;;;0.10;0.10;;;17.20;73.20;;;;;;5120433;28;20072;-54
2022/01/03 10:22:28;;;;;;;0.00;0.00;;;17.20;73.10;;;;;;5120196;28;20051;-54
2022/01/03 10:24:54;;;;;;;0.20;0.17;;;17.20;73.00;;;;;;5120419;28;20654;-56
2022/01/03 10:27:24;;;;;;;0.10;0.10;;;17.20;72.60;;;;;;5116544;28;20042;-54
2022/01/03 10:29:57;;;;;;;0.10;0.10;;;17.20;72.30;;;;;;5104387;28;20020;-55
2022/01/03 10:32:30;;;;;;;0.10;0.10;;;17.20;72.30;;;;;;5119735;28;20032;-56
2022/01/03 10:35:13;;;;;;;0.10;0.10;;;17.10;72.30;;;;;;5120159;28;20135;-55
2022/01/03 10:37:40;;;;;;;0.10;0.10;;;17.20;72.60;;;;;;5119949;28;20088;-55
2022/01/03 10:40:35;;;;;;;0.10;0.10;;;17.20;72.70;;;;;;5119841;28;20388;-55
2022/01/03 10:43:16;;;;;;;0.10;0.10;;;17.30;72.30;;;;;;5105445;28;20039;-55
2022/01/03 10:45:42;;;;;;;0.08;0.08;;;17.30;72.00;;;;;;5119830;28;20031;-56
2022/01/03 10:48:33;;;;;;;0.10;0.10;;;17.20;71.70;;;;;;5119926;28;20015;-55
2022/01/03 10:51:00;;;;;;;0.10;0.10;;;17.20;71.60;;;;;;5119602;28;20020;-53
2022/01/03 10:53:39;;;;;;;;;;;17.10;71.60;;;;;;5120094;28;20057;-56
2022/01/03 10:56:28;;;;;;;0.10;0.10;;;17.20;71.90;;;;;;5119776;28;19910;-55
2022/01/03 10:59:07;;;;;;;0.10;0.10;;;17.30;72.10;;;;;;5118440;28;20844;-55
2022/01/03 11:01:33;;;;;;;0.10;0.10;;;17.30;71.70;;;;;;5118904;28;20032;-55
2022/01/03 11:04:01;;;;;;;0.10;0.10;;;17.30;71.30;;;;;;5118147;28;20678;-55
2022/01/03 11:11:49;;;;;;;0.10;0.10;;;17.20;71.20;;;;;;5105467;28;20086;-55
2022/01/03 11:14:38;;;;;;;0.10;0.00;;;17.20;71.50;;;;;;5105647;28;20032;-56
2022/01/03 11:17:25;;;;;;;0.10;0.10;;;17.30;71.50;;;;;;5105813;28;20056;-56
2022/01/03 11:19:52;;;;;;;0.93;0.10;;;17.30;71.30;;;;;;5105491;28;20020;-55
2022/01/03 11:22:42;;;;;;;0.03;0.03;;;17.30;71.50;;;;;;5105284;28;20185;-55
2022/01/03 11:25:09;;;;;;;0.10;0.10;;;17.30;70.80;;;;;;5105509;28;20488;-55
2022/01/03 11:27:38;;;;;;;0.10;0.10;;;17.20;70.70;;;;;;5098985;28;20055;-54
2022/01/03 11:30:05;;;;;;;0.00;0.00;;;17.20;70.90;;;;;;5093276;28;20464;-56
2022/01/03 11:32:32;;;;;;;;;;;17.20;71.30;;;;;;5105354;28;20034;-54
2022/01/03 11:34:58;;;;;;;0.10;0.10;;;17.30;71.20;;;;;;5105240;28;19963;-56
2022/01/03 11:37:24;;;;;;;0.10;0.10;;;17.30;71.20;;;;;;5103790;28;20036;-54
2022/01/03 11:39:50;;;;;;;0.47;0.10;;;17.30;70.80;;;;;;5103760;28;20043;-55
2022/01/03 11:42:17;;;;;;;0.00;0.00;;;17.30;70.40;;;;;;5103346;28;20020;-56
2022/01/03 11:44:43;;;;;;;0.10;0.10;;;17.30;70.50;;;;;;5104760;28;20468;-55
2022/01/03 11:47:09;;;;;;;0.10;0.10;;;17.20;70.40;;;;;;5103484;28;20039;-54
2022/01/03 11:49:36;;;;;;;0.00;0.00;;;17.20;71.30;;;;;;5103565;28;20035;-55
2022/01/03 11:52:08;;;;;;;;;;;17.20;70.90;;;;;;5105171;28;20028;-54
2022/01/03 11:54:34;;;;;;;0.10;0.10;;;17.30;70.80;;;;;;5104795;28;19912;-55
2022/01/03 11:57:16;;;;;;;0.10;0.10;;;17.30;70.70;;;;;;5102411;28;20024;-55
2022/01/03 12:05:48;;;;;;;0.00;0.00;;;17.20;69.90;;;;;;5104457;28;20039;-55
2022/01/03 12:08:25;;;;;;;0.10;0.10;;;17.20;70.10;;;;;;5086142;28;20491;-55
2022/01/03 12:10:52;;;;;;;0.10;0.10;;;17.30;70.60;;;;;;5104669;28;20024;-56
2022/01/03 12:13:21;;;;;;;0.10;0.10;;;17.30;70.40;;;;;;5104095;28;20562;-54
2022/01/03 12:16:02;;;;;;;0.10;0.10;;;17.30;70.30;;;;;;5103992;28;20035;-55
2022/01/03 12:18:29;;;;;;;0.22;0.10;;;17.30;70.00;;;;;;5102909;28;20028;-54
2022/01/03 12:20:55;;;;;;;0.10;0.10;;;17.30;69.60;;;;;;5103232;28;20024;-56
2022/01/03 12:23:38;;;;;;;0.10;0.10;;;17.30;69.60;;;;;;5103881;28;20096;-55
2022/01/03 12:26:09;;;;;;;0.10;0.10;;;17.20;69.60;;;;;;5104065;28;20028;-53
2022/01/03 12:29:05;;;;;;;0.03;0.03;;;17.20;69.80;;;;;;5089434;28;20040;-55
2022/01/03 12:32:08;;;;;;;0.10;0.10;;;17.30;70.00;;;;;;5083620;28;20056;-55
2022/01/03 12:34:35;;;;;;;0.00;0.00;;;17.30;69.80;;;;;;5083720;28;20066;-55
2022/01/03 12:37:18;;;;;;;0.10;0.10;;;17.30;69.20;;;;;;5083606;28;20088;-54
2022/01/03 12:40:03;;;;;;;0.17;0.10;;;17.30;69.20;;;;;;5083601;28;20104;-56
2022/01/03 12:42:54;;;;;;;0.17;0.10;;;17.20;69.10;;;;;;5083170;28;20081;-56
2022/01/03 12:45:32;;;;;;;0.10;0.10;;;17.20;69.30;;;;;;5083268;28;20033;-56
2022/01/03 12:48:10;;;;;;;0.10;0.10;;;17.20;69.60;;;;;;5083434;28;20032;-55
2022/01/03 12:50:36;;;;;;;0.10;0.10;;;17.30;69.60;;;;;;5083444;28;20059;-55
2022/01/03 12:53:03;;;;;;;0.10;0.10;;;17.30;69.40;;;;;;5083180;28;20039;-57
2022/01/03 12:55:38;;;;;;;0.10;0.10;;;17.30;69.20;;;;;;5083380;28;20059;-55
2022/01/03 12:58:13;;;;;;;0.10;0.10;;;17.30;68.80;;;;;;5092994;28;20046;-56
2022/01/03 13:00:42;;;;;;;1.23;0.10;;;17.20;68.80;;;;;;5103187;28;20030;-56
2022/01/03 13:03:22;;;;;;;0.10;0.10;;;17.20;68.80;;;;;;5103209;28;20020;-55
2022/01/03 13:06:13;;;;;;;0.10;0.10;;;17.20;69.00;;;;;;5103519;28;20032;-55
2022/01/03 13:08:43;;;;;;;0.10;0.10;;;17.30;69.40;;;;;;5103160;28;20828;-54
2022/01/03 13:11:13;;;;;;;0.10;0.10;;;17.30;69.20;;;;;;5103325;28;20028;-56
2022/01/03 13:13:41;;;;;;;0.10;0.10;;;17.30;68.70;;;;;;5103036;28;20495;-56
2022/01/03 13:16:20;;;;;;;0.13;0.10;;;17.30;68.50;;;;;;5103177;28;20040;-54
2022/01/03 13:18:49;;;;;;;0.10;0.10;;;17.20;68.50;;;;;;5103066;28;20063;-56
2022/01/03 13:21:16;;;;;;;0.20;0.20;;;17.20;69.00;;;;;;5103214;28;20056;-56
2022/01/03 13:24:06;;;;;;;0.10;0.10;;;17.20;69.00;;;;;;5102941;28;20054;-55
2022/01/03 13:26:33;;;;;;;0.10;0.10;;;17.30;69.00;;;;;;5103164;28;20024;-56
2022/01/03 13:29:03;;;;;;;0.10;0.10;;;17.40;68.70;;;;;;5085430;28;20794;-57
2022/01/03 13:31:29;;;;;;;0.17;0.17;;;17.30;68.20;;;;;;5102811;28;20067;-56
2022/01/03 13:33:59;;;;;;;0.20;0.20;;;17.20;68.00;;;;;;5102470;28;20028;-56
2022/01/03 13:36:42;;;;;;;0.20;0.20;;;17.20;68.20;;;;;;5102901;28;20024;-56
2022/01/03 13:39:21;;;;;;;0.20;0.20;;;17.20;68.70;;;;;;5103063;28;20071;-56
2022/01/03 13:42:08;;;;;;;0.10;0.10;;;17.30;68.70;;;;;;5102987;28;20083;-56
2022/01/03 13:50:10;;;;;;;0.20;0.20;;;17.30;67.90;;;;;;5102830;28;20035;-56
2022/01/03 13:52:38;;;;;;;0.30;0.30;;;17.20;67.90;;;;;;5102062;28;20483;-57
2022/01/03 13:55:19;;;;;;;0.20;0.20;;;17.20;68.00;;;;;;5102584;28;20040;-56
2022/01/03 13:57:47;;;;;;;0.20;0.20;;;17.20;68.40;;;;;;5101960;28;20032;-54
2022/01/03 14:00:17;;;;;;;0.20;0.20;;;17.30;68.50;;;;;;5102053;28;20032;-56
2022/01/03 14:02:44;;;;;;;0.20;0.20;;;17.30;68.40;;;;;;5102645;28;20088;-57
2022/01/03 14:05:11;;;;;;;0.20;0.20;;;17.30;67.80;;;;;;5102458;28;20024;-57
2022/01/03 14:07:37;;;;;;;0.20;0.20;;;17.30;67.60;;;;;;5102594;28;20036;-56
2022/01/03 14:10:03;;;;;;;0.30;0.30;;;17.20;67.60;;;;;;5101219;28;20036;-56
2022/01/03 14:12:30;;;;;;;0.20;0.20;;;17.10;67.70;;;;;;5102539;28;20047;-56
2022/01/03 14:15:01;;;;;;;0.25;0.25;;;17.20;68.20;;;;;;5102136;28;20260;-57
2022/01/03 14:17:30;;;;;;;0.45;0.30;;;17.30;68.10;;;;;;5102360;28;20032;-57
2022/01/03 14:20:06;;;;;;;0.38;0.30;;;17.30;68.10;;;;;;5102470;28;20039;-57
2022/01/03 14:22:34;;;;;;;0.30;0.30;;;17.30;67.80;;;;;;5102384;28;20052;-57
2022/01/03 14:25:06;;;;;;;0.40;0.40;;;17.30;67.40;;;;;;5102454;28;20035;-57
2022/01/03 14:28:07;;;;;;;0.30;0.30;;;17.20;67.40;;;;;;5100554;28;20055;-56
2022/01/03 14:30:35;;;;;;;0.40;0.40;;;17.20;67.40;;;;;;5058881;28;20059;-56
2022/01/03 14:33:04;;;;;;;;;;;17.20;68.00;;;;;;5060152;28;20037;-57
2022/01/03 14:35:40;;;;;;;0.30;0.30;;;17.30;67.80;;;;;;5059176;28;19909;-57
2022/01/03 14:38:11;;;;;;;0.40;0.40;;;17.30;67.80;;;;;;5059380;28;20943;-57
2022/01/03 14:40:50;;;;;;;0.47;0.47;;;17.30;67.50;;;;;;5059352;28;20093;-57
2022/01/03 14:43:24;;;;;;;0.50;0.50;;;17.30;67.00;;;;;;5059360;28;20040;-57
2022/01/03 14:45:51;;;;;;;0.47;0.47;;;17.30;67.10;;;;;;5062140;28;20033;-57
2022/01/03 14:48:21;;;;;;;0.68;0.68;;;17.20;67.20;;;;;;5063250;28;20028;-57
2022/01/03 14:50:47;;;;;;;0.40;0.40;;;17.20;67.30;;;;;;5063106;28;20036;-58
2022/01/03 14:53:14;;;;;;;0.85;0.60;;;17.20;67.70;;;;;;5063166;28;20033;-56
2022/01/03 14:55:44;;;;;;;0.50;0.50;;;17.30;67.60;;;;;;5062795;28;20029;-59
2022/01/03 14:58:18;;;;;;;0.50;0.50;;;17.30;67.40;;;;;;5062623;28;20041;-57
2022/01/03 15:00:45;;;;;;;2.03;0.55;;;17.30;66.90;;;;;;5062375;28;20107;-58
2022/01/03 15:03:11;;;;;;;0.70;0.60;;;17.20;66.80;;;;;;5063019;28;20029;-57
2022/01/03 15:05:38;;;;;;;0.60;0.60;;;17.20;66.90;;;;;;5103420;28;20032;-57
2022/01/03 15:08:04;;;;;;;0.60;0.60;;;17.20;67.30;;;;;;5105721;28;20145;-57
2022/01/03 15:10:32;;;;;;;0.45;0.45;;;17.20;67.30;;;;;;5105791;28;20123;-57
2022/01/03 15:12:58;;;;;;;0.75;0.65;;;17.30;67.30;;;;;;5105932;28;20025;-58
2022/01/03 15:15:25;;;;;;;0.70;0.70;;;17.30;67.20;;;;;;5105136;28;20056;-58
2022/01/03 15:17:53;;;;;;;0.73;0.73;;;17.30;66.70;;;;;;5105676;28;20070;-58
2022/01/03 15:20:19;;;;;;;0.80;0.80;;;17.30;66.70;;;;;;5105842;28;20540;-57
2022/01/03 15:22:45;;;;;;;0.70;0.70;;;17.20;66.60;;;;;;5105822;28;20606;-58
2022/01/03 15:25:11;;;;;;;0.68;0.68;;;17.20;66.70;;;;;;5105348;28;20035;-58
2022/01/03 15:27:38;;;;;;;0.70;0.70;;;17.20;67.30;;;;;;5099145;28;20024;-58
2022/01/03 15:30:05;;;;;;;0.77;0.77;;;17.30;67.30;;;;;;5093570;28;20032;-58
2022/01/03 15:32:31;;;;;;;;;;;17.30;67.10;;;;;;5105902;28;20093;-58
2022/01/03 15:34:57;;;;;;;0.80;0.70;;;17.30;66.80;;;;;;5105108;28;19908;-58
2022/01/03 15:37:23;;;;;;;1.00;0.90;;;17.30;66.50;;;;;;5105252;28;20230;-57
2022/01/03 15:39:50;;;;;;;0.80;0.80;;;17.30;66.60;;;;;;5105536;28;20040;-58
2022/01/03 15:42:16;;;;;;;0.82;0.77;;;17.20;66.60;;;;;;5104979;28;20020;-58
2022/01/03 15:44:42;;;;;;;1.00;0.90;;;17.10;66.80;;;;;;5105003;28;20020;-58
2022/01/03 15:47:08;;;;;;;1.02;0.70;;;17.20;67.10;;;;;;5104364;28;20024;-57
2022/01/03 15:49:34;;;;;;;0.75;0.65;;;17.30;67.00;;;;;;5104912;28;20066;-57
2022/01/03 15:52:01;;;;;;;1.58;0.88;;;17.30;67.00;;;;;;5105339;28;20084;-58
2022/01/03 15:54:28;;;;;;;0.93;0.90;;;17.30;66.70;;;;;;5105046;28;20024;-58
2022/01/03 15:56:54;;;;;;;;;;;17.30;66.40;;;;;;5104264;28;20044;-58
2022/01/03 15:59:20;;;;;;;0.80;0.80;;;17.30;66.40;;;;;;5087429;28;19923;-58
2022/01/03 16:01:47;;;;;;;0.93;0.85;;;17.20;66.50;;;;;;5104887;28;20035;-57
2022/01/03 16:04:13;;;;;;;0.82;0.82;;;17.20;67.00;;;;;;5104656;28;20054;-58
2022/01/03 16:06:39;;;;;;;1.13;0.90;;;17.30;66.90;;;;;;5104684;28;20024;-58
2022/01/03 16:09:06;;;;;;;0.80;0.80;;;17.30;66.80;;;;;;5104690;28;20375;-58
2022/01/03 16:11:32;;;;;;;0.90;0.73;;;17.40;66.60;;;;;;5104678;28;20020;-58
2022/01/03 16:13:58;;;;;;;1.23;1.02;;;17.30;66.30;;;;;;5104937;28;20114;-58